Time;durP1;ratioP1;P1;durP2;ratioP2;P2;SDS_P1;SDS_P2;PMS_P1;PMS_P2;Temp;Humidity;BMP_temperature;BMP_pressure;BME280_temperature;BME280_humidity;BME280_pressure;Samples;Min_cycle;Max_cycle;Signal;HPM_P1;HPM_P2
2022/07/11 00:02:02;;;;;;;9.25;3.15;;;;;;;17.42;96.45;102329.38;5025109;28;20045;-68
2022/07/11 00:04:31;;;;;;;7.30;3.78;;;;;;;17.37;96.25;102324.34;5024723;28;20097;-70
2022/07/11 00:06:58;;;;;;;10.07;3.40;;;;;;;17.32;96.99;102331.88;5027515;28;20033;-67
2022/07/11 00:09:23;;;;;;;12.38;3.70;;;;;;;17.24;98.51;102321.59;5026248;28;20085;-69
2022/07/11 00:11:49;;;;;;;11.50;2.78;;;;;;;17.27;96.18;102321.41;5024094;28;20034;-69
2022/07/11 00:14:16;;;;;;;4.35;2.70;;;;;;;17.24;96.05;102326.13;5025489;28;20069;-69
2022/07/11 00:16:41;;;;;;;4.80;2.20;;;;;;;17.19;96.73;102330.97;5024207;28;20048;-70
2022/07/11 00:19:07;;;;;;;7.28;2.50;;;;;;;17.18;96.07;102322.03;5023932;28;20902;-69
2022/07/11 00:21:33;;;;;;;4.07;1.92;;;;;;;17.16;96.96;102321.25;5023321;28;20055;-69
2022/07/11 00:23:59;;;;;;;5.40;2.42;;;;;;;17.20;96.18;102319.22;5023467;28;20038;-69
2022/07/11 00:26:25;;;;;;;4.35;2.15;;;;;;;17.15;95.49;102316.81;5023493;28;20076;-69
2022/07/11 00:28:50;;;;;;;4.32;1.75;;;;;;;17.13;95.41;102324.16;5023546;28;20037;-69
2022/07/11 00:31:16;;;;;;;3.72;1.70;;;;;;;17.15;94.82;102315.97;5023227;28;20052;-70
2022/07/11 00:33:41;;;;;;;2.33;1.50;;;;;;;17.12;94.92;102317.03;5021723;28;20041;-70
2022/07/11 00:36:07;;;;;;;4.25;1.60;;;;;;;17.08;94.93;102318.22;5023779;28;20103;-70
2022/07/11 00:38:32;;;;;;;4.30;1.70;;;;;;;17.06;94.68;102320.13;5027012;28;20037;-69
2022/07/11 00:40:58;;;;;;;4.32;1.90;;;;;;;17.09;94.58;102325.31;5027260;28;20050;-70
2022/07/11 00:43:35;;;;;;;3.97;1.77;;;;;;;17.11;95.13;102317.13;5027251;28;20069;-68
2022/07/11 00:46:01;;;;;;;5.00;1.70;;;;;;;17.06;95.05;102312.91;5030798;28;20033;-69
2022/07/11 00:48:27;;;;;;;2.90;1.83;;;;;;;17.10;94.93;102316.25;5030953;28;20064;-68
2022/07/11 00:50:53;;;;;;;3.83;1.50;;;;;;;17.01;96.36;102315.03;5030957;28;20045;-68
2022/07/11 00:53:20;;;;;;;3.03;1.60;;;;;;;17.15;95.01;102316.81;5031238;28;20050;-68
2022/07/11 00:55:46;;;;;;;4.85;1.80;;;;;;;17.09;95.72;102309.16;5031629;28;20041;-68
2022/07/11 00:58:12;;;;;;;2.20;1.42;;;;;;;17.15;94.73;102311.44;5030863;28;20026;-69
2022/07/11 01:00:39;;;;;;;3.83;1.60;;;;;;;17.09;95.30;102317.25;5029375;28;20041;-69
2022/07/11 01:03:05;;;;;;;4.32;1.60;;;;;;;17.16;95.09;102312.28;5028953;28;20045;-69
2022/07/11 01:05:31;;;;;;;2.78;1.80;;;;;;;17.13;95.17;102312.50;5030131;28;20060;-68
2022/07/11 01:07:56;;;;;;;6.15;1.63;;;;;;;17.08;95.69;102313.69;5029338;28;20040;-68
2022/07/11 01:10:23;;;;;;;3.47;1.85;;;;;;;17.11;95.54;102307.22;5030929;28;20037;-69
2022/07/11 01:12:50;;;;;;;5.75;1.92;;;;;;;17.11;96.06;102304.50;5031275;28;20061;-68
2022/07/11 01:15:16;;;;;;;1.80;1.55;;;;;;;17.18;95.86;102304.97;5029959;28;20081;-69
2022/07/11 01:17:41;;;;;;;2.25;1.60;;;;;;;17.08;95.40;102304.75;5029737;28;20061;-68
2022/07/11 01:20:07;;;;;;;6.90;1.70;;;;;;;17.15;95.50;102302.47;5029512;28;20044;-68
2022/07/11 01:22:38;;;;;;;3.95;1.90;;;;;;;17.02;96.37;102306.03;5027976;28;20041;-69
2022/07/11 01:25:05;;;;;;;3.78;2.03;;;;;;;17.02;97.24;102310.56;5025147;28;20032;-68
2022/07/11 01:27:31;;;;;;;6.93;2.40;;;;;;;17.05;96.20;102310.31;5006378;28;20042;-67
2022/07/11 01:29:57;;;;;;;2.20;1.58;;;;;;;17.10;95.48;102305.50;5005519;28;20077;-68
2022/07/11 01:32:22;;;;;;;4.63;2.28;;;;;;;16.97;96.16;102301.91;5003612;28;20043;-67
2022/07/11 01:34:48;;;;;;;2.10;1.60;;;;;;;17.01;95.97;102301.56;5002963;28;20038;-68
2022/07/11 01:37:14;;;;;;;3.15;1.48;;;;;;;16.89;96.55;102302.41;5002055;28;20038;-68
2022/07/11 01:39:39;;;;;;;4.55;1.70;;;;;;;16.94;96.28;102297.56;5000926;28;20670;-68
2022/07/11 01:42:05;;;;;;;5.38;1.58;;;;;;;16.86;97.55;102301.75;5000574;28;20050;-68
2022/07/11 01:44:31;;;;;;;2.97;1.85;;;;;;;16.88;96.98;102302.50;5000849;28;20128;-69
2022/07/11 01:46:56;;;;;;;7.10;1.38;;;;;;;16.93;96.63;102297.69;5000327;28;20050;-69
2022/07/11 01:49:22;;;;;;;4.30;1.60;;;;;;;16.88;96.48;102294.44;5001178;28;20039;-69
2022/07/11 01:51:50;;;;;;;5.95;1.83;;;;;;;16.85;96.99;102292.78;5010901;28;20102;-68
2022/07/11 01:54:16;;;;;;;3.45;1.40;;;;;;;16.80;97.17;102303.88;5019288;28;20044;-68
2022/07/11 01:56:41;;;;;;;4.72;1.83;;;;;;;16.84;97.81;102299.16;5018618;28;20544;-69
2022/07/11 01:59:07;;;;;;;3.08;1.77;;;;;;;16.82;97.63;102299.25;5017274;28;20049;-68
2022/07/11 02:01:32;;;;;;;7.90;2.05;;;;;;;16.68;100.00;102307.34;5018827;28;20100;-69
2022/07/11 02:04:00;;;;;;;5.15;1.63;;;;;;;16.60;100.00;102311.50;5018275;28;20038;-68
2022/07/11 02:06:25;;;;;;;5.60;1.70;;;;;;;16.68;99.47;102314.56;5002316;28;20065;-68
2022/07/11 02:08:51;;;;;;;7.25;2.25;;;;;;;16.64;98.43;102313.03;5002244;28;20040;-69
2022/07/11 02:11:16;;;;;;;5.47;2.10;;;;;;;16.59;98.84;102316.03;5017238;28;20122;-68
2022/07/11 02:13:42;;;;;;;4.07;1.80;;;;;;;16.56;99.01;102314.38;5017633;28;20119;-68
2022/07/11 02:16:08;;;;;;;3.42;1.60;;;;;;;16.53;99.62;102314.59;5018715;28;20046;-69
2022/07/11 02:18:34;;;;;;;6.97;1.83;;;;;;;16.44;100.00;102312.50;5016905;28;20037;-68
2022/07/11 02:21:00;;;;;;;2.78;1.85;;;;;;;16.33;100.00;102304.25;5019442;28;20054;-68
2022/07/11 02:23:26;;;;;;;6.57;2.08;;;;;;;16.24;100.00;102308.41;5018174;28;20042;-68
2022/07/11 02:25:53;;;;;;;6.15;1.80;;;;;;;16.18;100.00;102306.09;5017020;28;20049;-69
2022/07/11 02:28:19;;;;;;;2.95;1.88;;;;;;;16.19;100.00;102302.44;5018784;28;20041;-68
2022/07/11 02:30:45;;;;;;;9.48;2.78;;;;;;;16.20;100.00;102306.00;5020243;28;20045;-68
2022/07/11 02:33:15;;;;;;;2.05;1.80;;;;;;;16.15;100.00;102308.97;5022368;28;20516;-68
2022/07/11 02:35:41;;;;;;;3.88;1.42;;;;;;;16.08;100.00;102304.09;5020279;28;20046;-68
2022/07/11 02:38:07;;;;;;;4.95;1.50;;;;;;;16.13;100.00;102304.66;5021296;28;20068;-68
2022/07/11 02:40:33;;;;;;;2.30;1.70;;;;;;;16.15;99.88;102300.91;5020604;28;20049;-69
2022/07/11 02:42:58;;;;;;;2.45;1.65;;;;;;;16.19;100.00;102299.75;5020828;28;20041;-67
2022/07/11 02:45:24;;;;;;;2.63;1.77;;;;;;;16.14;100.00;102299.19;5019474;28;20030;-67
2022/07/11 02:47:50;;;;;;;3.53;1.50;;;;;;;16.18;100.00;102305.25;5018947;28;20255;-68
2022/07/11 02:50:15;;;;;;;1.20;1.10;;;;;;;16.13;100.00;102304.66;5020699;28;20040;-69
2022/07/11 02:52:42;;;;;;;3.72;0.90;;;;;;;16.12;98.65;102311.88;5001960;28;20122;-68
2022/07/11 02:55:09;;;;;;;1.52;1.10;;;;;;;16.05;99.22;102308.69;5013264;28;20073;-67
2022/07/11 02:57:35;;;;;;;2.55;0.77;;;;;;;16.14;98.71;102301.00;5020372;28;20053;-68
2022/07/11 03:00:06;;;;;;;0.80;0.80;;;;;;;16.14;97.64;102299.19;5021255;28;20050;-68
2022/07/11 03:02:32;;;;;;;0.70;0.70;;;;;;;16.11;97.30;102298.50;5018013;28;20089;-68
2022/07/11 03:04:57;;;;;;;1.05;1.05;;;;;;;16.13;97.41;102313.59;5019200;28;20438;-67
2022/07/11 03:07:26;;;;;;;4.10;0.90;;;;;;;16.00;98.28;102307.25;5019161;28;20084;-68
2022/07/11 03:09:52;;;;;;;0.77;0.77;;;;;;;15.98;98.53;102312.75;5019809;28;20030;-68
2022/07/11 03:12:18;;;;;;;0.90;0.90;;;;;;;16.09;98.34;102309.38;5019606;28;20030;-69
2022/07/11 03:14:43;;;;;;;0.65;0.65;;;;;;;16.18;97.93;102306.09;5020824;28;20048;-68
2022/07/11 03:17:09;;;;;;;1.63;1.10;;;;;;;16.14;98.64;102318.03;5020776;28;20048;-68
2022/07/11 03:19:34;;;;;;;2.75;1.15;;;;;;;16.21;98.27;102311.28;5020404;28;20045;-68
2022/07/11 03:22:00;;;;;;;4.07;1.15;;;;;;;16.21;99.23;102318.47;5020569;28;20050;-68
2022/07/11 03:24:25;;;;;;;1.23;1.13;;;;;;;16.21;99.01;102319.34;5019690;28;20041;-68
2022/07/11 03:26:51;;;;;;;2.53;1.30;;;;;;;16.17;99.94;102319.66;5020359;28;20474;-68
2022/07/11 03:29:17;;;;;;;2.63;1.30;;;;;;;16.16;100.00;102313.38;5019896;28;20104;-68
2022/07/11 03:31:43;;;;;;;1.98;1.23;;;;;;;16.01;100.00;102317.94;5021047;28;20046;-68
2022/07/11 03:34:09;;;;;;;2.85;1.20;;;;;;;16.13;100.00;102319.00;5001628;28;20038;-68
2022/07/11 03:36:34;;;;;;;4.57;1.40;;;;;;;16.01;100.00;102315.25;5020623;28;20048;-69
2022/07/11 03:39:00;;;;;;;1.80;1.23;;;;;;;16.05;100.00;102315.91;5019866;28;20046;-68
2022/07/11 03:41:25;;;;;;;2.45;1.38;;;;;;;16.00;100.00;102313.50;5021461;28;20077;-69
2022/07/11 03:43:56;;;;;;;4.97;1.67;;;;;;;16.04;100.00;102306.97;5019428;28;20134;-67
2022/07/11 03:46:22;;;;;;;1.15;1.00;;;;;;;15.95;99.93;102312.06;5020312;28;20061;-69
2022/07/11 03:48:48;;;;;;;1.75;0.85;;;;;;;15.82;100.00;102314.66;5003633;28;20049;-69
2022/07/11 03:51:13;;;;;;;2.25;1.10;;;;;;;15.97;99.55;102316.41;5012529;28;20141;-68
2022/07/11 03:53:38;;;;;;;1.10;1.00;;;;;;;15.96;99.97;102320.03;5001837;28;20035;-69
2022/07/11 03:56:04;;;;;;;1.63;1.02;;;;;;;16.05;99.70;102326.66;5020104;28;20048;-69
2022/07/11 03:58:31;;;;;;;2.53;1.40;;;;;;;16.07;100.00;102324.75;4999744;28;20108;-68
2022/07/11 04:00:56;;;;;;;5.53;1.23;;;;;;;16.04;100.00;102322.25;5010378;28;20038;-68
2022/07/11 04:03:21;;;;;;;1.83;1.20;;;;;;;16.08;99.84;102321.09;5009518;28;20424;-69
2022/07/11 04:05:47;;;;;;;2.15;1.25;;;;;;;16.16;100.00;102321.47;5008263;28;20041;-69
2022/07/11 04:08:12;;;;;;;1.73;1.33;;;;;;;16.13;100.00;102316.31;5008732;28;20037;-68
2022/07/11 04:10:38;;;;;;;2.55;1.48;;;;;;;16.21;99.64;102321.19;5020476;28;20026;-69
2022/07/11 04:13:03;;;;;;;3.70;1.80;;;;;;;16.23;99.32;102317.44;5020310;28;20045;-68
2022/07/11 04:15:29;;;;;;;2.67;1.40;;;;;;;16.33;99.81;102330.31;5020321;28;20046;-68
2022/07/11 04:17:54;;;;;;;2.80;1.45;;;;;;;16.29;100.00;102325.13;5021238;28;20050;-68
2022/07/11 04:20:20;;;;;;;1.65;1.20;;;;;;;16.42;100.00;102327.03;5020674;28;20038;-69
2022/07/11 04:22:45;;;;;;;2.05;1.58;;;;;;;16.51;99.40;102329.97;5021248;28;20042;-68
2022/07/11 04:25:11;;;;;;;2.63;1.55;;;;;;;16.55;99.77;102327.97;5020370;28;20042;-69
2022/07/11 04:27:37;;;;;;;4.93;1.55;;;;;;;16.43;99.47;102329.63;5018776;28;20102;-68
2022/07/11 04:30:03;;;;;;;2.10;1.30;;;;;;;16.59;98.31;102329.50;5019315;28;20061;-69
2022/07/11 04:32:28;;;;;;;2.20;1.55;;;;;;;16.43;100.00;102326.06;5021047;28;20045;-69
2022/07/11 04:34:54;;;;;;;2.22;1.55;;;;;;;16.52;100.00;102330.88;5019692;28;20046;-68
2022/07/11 04:37:19;;;;;;;5.95;1.70;;;;;;;16.71;97.99;102336.81;5020850;28;20048;-68
2022/07/11 04:39:46;;;;;;;2.33;1.50;;;;;;;16.90;96.74;102335.59;5020531;28;20038;-68
2022/07/11 04:42:12;;;;;;;5.15;2.15;;;;;;;16.87;98.34;102330.41;5021212;28;20053;-69
2022/07/11 04:44:37;;;;;;;1.65;1.48;;;;;;;16.97;97.57;102335.09;5022476;28;20042;-68
2022/07/11 04:47:03;;;;;;;2.00;1.30;;;;;;;17.03;96.90;102337.38;5022529;28;20038;-69
2022/07/11 04:49:29;;;;;;;1.98;1.60;;;;;;;17.04;95.69;102339.09;5024905;28;20651;-68
2022/07/11 04:51:55;;;;;;;5.25;1.65;;;;;;;17.10;96.20;102337.84;5011787;28;20064;-69
2022/07/11 04:54:22;;;;;;;3.38;1.55;;;;;;;17.17;95.52;102340.97;4991720;28;20148;-68
2022/07/11 04:56:48;;;;;;;1.83;1.40;;;;;;;17.27;95.74;102340.28;5005883;28;20049;-68
2022/07/11 04:59:13;;;;;;;2.25;1.35;;;;;;;17.26;94.37;102343.06;5022612;28;20021;-69
2022/07/11 05:01:39;;;;;;;2.55;1.48;;;;;;;17.21;95.59;102348.75;5023271;28;20068;-69
2022/07/11 05:04:04;;;;;;;1.33;1.23;;;;;;;17.21;94.91;102343.34;5025408;28;20037;-68
2022/07/11 05:06:30;;;;;;;4.88;1.90;;;;;;;17.38;93.49;102339.53;5013485;28;20045;-68
2022/07/11 05:08:55;;;;;;;1.88;1.48;;;;;;;17.07;96.04;102341.63;5004125;28;20044;-70
2022/07/11 05:11:21;;;;;;;10.95;1.83;;;;;;;17.23;95.63;102346.84;5001990;28;20038;-70
2022/07/11 05:13:47;;;;;;;2.80;1.50;;;;;;;17.52;92.76;102342.16;5022909;28;20562;-69
2022/07/11 05:16:12;;;;;;;3.78;1.70;;;;;;;17.48;93.19;102345.16;5023187;28;20047;-68
2022/07/11 05:18:38;;;;;;;3.50;2.00;;;;;;;17.56;93.40;102346.34;5020695;28;20069;-68
2022/07/11 05:21:04;;;;;;;4.65;2.33;;;;;;;17.68;92.41;102341.09;5020468;28;20038;-69
2022/07/11 05:23:29;;;;;;;3.05;1.73;;;;;;;17.93;90.90;102337.59;5018786;28;20060;-68
2022/07/11 05:25:55;;;;;;;4.10;1.80;;;;;;;17.72;93.32;102346.19;5019656;28;20062;-69
2022/07/11 05:28:20;;;;;;;3.00;1.33;;;;;;;18.02;90.35;102343.19;5019548;28;20162;-68
2022/07/11 05:30:46;;;;;;;3.28;1.98;;;;;;;17.77;92.65;102357.56;5018430;28;20044;-68
2022/07/11 05:33:12;;;;;;;2.33;1.88;;;;;;;17.75;92.63;102350.53;5022051;28;20041;-69
2022/07/11 05:35:41;;;;;;;3.58;1.58;;;;;;;17.31;93.19;102362.47;5019992;28;20376;-67
2022/07/11 05:38:06;;;;;;;1.52;1.20;;;;;;;17.10;93.96;102359.41;5022076;28;20034;-69
2022/07/11 05:40:31;;;;;;;1.40;1.27;;;;;;;17.16;95.32;102360.81;5022418;28;20064;-68
2022/07/11 05:42:57;;;;;;;5.38;1.30;;;;;;;17.35;94.35;102354.09;5019730;28;20082;-68
2022/07/11 05:45:22;;;;;;;2.35;1.20;;;;;;;17.49;92.54;102358.53;5021106;28;20021;-69
2022/07/11 05:47:49;;;;;;;1.35;0.90;;;;;;;17.77;90.84;102356.66;5020720;28;20077;-69
2022/07/11 05:50:14;;;;;;;3.22;1.30;;;;;;;18.10;90.54;102348.91;5019937;28;20132;-69
2022/07/11 05:52:40;;;;;;;1.67;1.15;;;;;;;17.91;91.02;102348.47;5020495;28;20062;-68
2022/07/11 05:55:06;;;;;;;2.78;1.10;;;;;;;18.13;93.21;102355.94;5019564;28;20049;-69
2022/07/11 05:57:31;;;;;;;1.27;1.02;;;;;;;18.31;90.97;102361.84;5018470;28;20045;-68
2022/07/11 05:59:57;;;;;;;1.13;0.95;;;;;;;17.89;90.90;102360.34;5019545;28;20041;-69
2022/07/11 06:02:22;;;;;;;1.80;1.20;;;;;;;17.69;92.19;102357.19;5021792;28;20176;-69
2022/07/11 06:04:48;;;;;;;3.13;1.02;;;;;;;17.69;91.96;102361.72;5025689;28;20048;-70
2022/07/11 06:08:40;;;;;;;0.95;0.95;;;;;;;18.28;90.52;102367.47;5022539;28;20064;-70
2022/07/11 06:09:59;;;;;;;2.78;1.35;;;;;;;18.08;93.17;102364.34;5023491;28;20133;-70
2022/07/11 06:12:25;;;;;;;2.38;1.13;;;;;;;18.07;93.52;102376.13;5022796;28;20080;-69
2022/07/11 06:14:50;;;;;;;3.80;1.30;;;;;;;18.33;90.92;102366.16;5021701;28;20042;-70
2022/07/11 06:17:15;;;;;;;1.25;0.95;;;;;;;18.31;91.36;102378.03;5021758;28;20037;-70
2022/07/11 06:19:41;;;;;;;2.78;1.25;;;;;;;18.47;89.45;102367.84;5023450;28;20089;-70
2022/07/11 06:22:06;;;;;;;1.20;1.08;;;;;;;18.42;90.36;102364.63;5023941;28;20056;-70
2022/07/11 06:24:32;;;;;;;2.38;1.15;;;;;;;18.62;89.19;102371.28;5023185;28;20055;-69
2022/07/11 06:27:00;;;;;;;1.10;1.00;;;;;;;18.58;88.93;102365.25;5021993;28;20025;-69
2022/07/11 06:29:26;;;;;;;2.83;1.02;;;;;;;18.68;89.61;102370.88;5023140;28;20022;-70
2022/07/11 06:31:54;;;;;;;1.88;1.42;;;;;;;18.51;91.18;102363.09;5024666;28;20101;-70
2022/07/11 06:34:20;;;;;;;2.42;0.88;;;;;;;18.59;88.69;102368.81;5022153;28;20061;-70
2022/07/11 06:36:45;;;;;;;1.40;1.08;;;;;;;18.43;88.53;102370.91;5023595;28;20427;-69
2022/07/11 06:39:11;;;;;;;1.10;1.00;;;;;;;18.43;90.22;102368.22;5022915;28;20046;-70
2022/07/11 06:41:36;;;;;;;3.22;1.50;;;;;;;18.34;90.54;102378.69;5022980;28;20044;-70
2022/07/11 06:44:02;;;;;;;1.50;1.23;;;;;;;18.39;90.78;102375.66;5023786;28;20065;-69
2022/07/11 06:46:27;;;;;;;5.10;1.88;;;;;;;17.92;92.23;102376.31;5022417;28;20069;-69
2022/07/11 06:48:53;;;;;;;2.75;1.60;;;;;;;18.69;89.03;102361.78;5023296;28;20053;-70
2022/07/11 06:51:18;;;;;;;2.35;1.60;;;;;;;18.96;88.33;102361.59;5014732;28;20057;-70
2022/07/11 06:53:44;;;;;;;6.53;2.03;;;;;;;19.09;86.68;102369.66;5003797;28;20038;-68
2022/07/11 06:56:09;;;;;;;1.98;1.35;;;;;;;18.91;86.93;102362.91;5021605;28;20038;-69
2022/07/11 06:58:35;;;;;;;1.17;1.00;;;;;;;18.91;87.81;102360.19;5022290;28;20050;-70
2022/07/11 07:01:03;;;;;;;1.65;0.98;;;;;;;19.08;87.10;102366.09;5021848;28;20049;-68
2022/07/11 07:03:30;;;;;;;1.75;1.02;;;;;;;18.94;88.12;102371.66;5022083;28;20068;-69
2022/07/11 07:05:56;;;;;;;1.10;1.00;;;;;;;18.78;89.67;102371.06;5022090;28;20037;-68
2022/07/11 07:08:26;;;;;;;1.17;1.08;;;;;;;18.37;91.09;102380.28;5024349;28;20056;-69
2022/07/11 07:10:53;;;;;;;1.00;0.90;;;;;;;18.84;90.40;102376.88;5022548;28;20057;-69
2022/07/11 07:13:20;;;;;;;1.65;1.25;;;;;;;19.22;90.39;102367.72;5021711;28;20046;-69
2022/07/11 07:15:47;;;;;;;3.78;1.20;;;;;;;19.53;91.28;102365.38;5024120;28;20033;-69
2022/07/11 07:18:12;;;;;;;2.80;1.17;;;;;;;19.37;91.33;102360.28;5024205;28;20030;-69
2022/07/11 07:20:38;;;;;;;3.05;1.70;;;;;;;20.46;86.52;102368.03;5024574;28;20030;-69
2022/07/11 07:23:03;;;;;;;3.67;1.40;;;;;;;20.26;83.24;102359.66;5022570;28;20069;-70
2022/07/11 07:25:29;;;;;;;1.48;1.13;;;;;;;20.63;82.96;102354.88;5023036;28;20046;-68
2022/07/11 07:27:54;;;;;;;4.53;1.52;;;;;;;20.47;82.41;102357.06;5023321;28;20034;-69
2022/07/11 07:30:20;;;;;;;6.97;1.40;;;;;;;20.51;81.41;102360.41;5022307;28;20060;-70
2022/07/11 07:32:45;;;;;;;2.92;1.30;;;;;;;20.90;80.64;102356.28;5022450;28;20050;-69
2022/07/11 07:35:11;;;;;;;1.95;1.20;;;;;;;20.55;83.91;102351.06;5022910;28;20050;-69
2022/07/11 07:37:36;;;;;;;1.40;1.02;;;;;;;21.14;81.75;102354.22;5022545;28;20372;-69
2022/07/11 07:40:02;;;;;;;1.42;1.13;;;;;;;20.78;81.39;102354.56;5023906;28;20065;-69
2022/07/11 07:42:27;;;;;;;2.13;1.13;;;;;;;21.11;79.16;102350.91;5023273;28;20037;-70
2022/07/11 07:44:53;;;;;;;1.83;1.20;;;;;;;22.27;74.87;102345.44;5024031;28;20123;-70
2022/07/11 07:47:20;;;;;;;2.58;1.45;;;;;;;23.22;70.96;102334.94;5022786;28;20042;-69
2022/07/11 07:49:45;;;;;;;2.15;0.95;;;;;;;22.04;72.47;102334.75;5023439;28;20060;-70
2022/07/11 07:52:11;;;;;;;3.25;0.95;;;;;;;21.64;77.61;102348.22;5013661;28;20093;-70
2022/07/11 07:54:36;;;;;;;1.65;1.10;;;;;;;21.23;78.89;102351.72;5020075;28;20042;-69
2022/07/11 07:57:02;;;;;;;1.65;0.70;;;;;;;20.88;78.45;102361.84;5020866;28;20052;-69
2022/07/11 07:59:27;;;;;;;1.45;0.57;;;;;;;20.52;81.30;102363.00;5022610;28;20026;-69
2022/07/11 08:01:53;;;;;;;0.63;0.63;;;;;;;20.46;82.34;102371.59;5021560;28;20042;-70
2022/07/11 08:04:19;;;;;;;2.78;0.90;;;;;;;20.51;81.46;102374.81;5022647;28;20044;-69
2022/07/11 08:06:44;;;;;;;0.88;0.70;;;;;;;20.30;81.47;102374.69;5019853;28;20038;-70
2022/07/11 08:09:10;;;;;;;3.85;1.20;;;;;;;20.04;84.82;102373.19;5019524;28;20041;-69
2022/07/11 08:11:35;;;;;;;1.27;1.00;;;;;;;20.13;84.63;102367.00;5021138;28;20592;-70
2022/07/11 08:14:03;;;;;;;1.35;1.20;;;;;;;20.24;85.25;102379.72;5022766;28;20021;-68
2022/07/11 08:16:29;;;;;;;1.25;1.17;;;;;;;20.51;83.50;102382.94;5021932;28;20072;-70
2022/07/11 08:18:56;;;;;;;1.38;0.55;;;;;;;20.74;81.20;102372.09;5021704;28;20076;-69
2022/07/11 08:21:21;;;;;;;2.47;0.73;;;;;;;21.04;79.48;102380.41;5021942;28;20053;-69
2022/07/11 08:23:47;;;;;;;1.45;0.95;;;;;;;21.05;79.38;102379.41;5020066;28;20069;-69
2022/07/11 08:26:12;;;;;;;0.70;0.70;;;;;;;21.05;79.10;102373.97;5018672;28;20038;-68
2022/07/11 08:28:38;;;;;;;0.82;0.75;;;;;;;20.92;77.68;102382.25;5020691;28;20041;-70
2022/07/11 08:31:03;;;;;;;0.60;0.60;;;;;;;21.18;78.56;102380.09;5020965;28;20053;-70
2022/07/11 08:33:29;;;;;;;0.80;0.55;;;;;;;21.17;78.76;102381.09;5021074;28;20060;-68
2022/07/11 08:35:54;;;;;;;1.33;0.50;;;;;;;20.43;81.58;102379.94;5021563;28;20046;-68
2022/07/11 08:38:20;;;;;;;2.08;0.70;;;;;;;20.89;79.90;102377.13;5022744;28;20385;-69
2022/07/11 08:40:48;;;;;;;0.60;0.60;;;;;;;21.10;79.12;102379.88;5021710;28;20470;-68
2022/07/11 08:43:15;;;;;;;2.25;0.70;;;;;;;20.55;83.08;102372.72;5021220;28;20133;-68
2022/07/11 08:45:41;;;;;;;2.33;0.70;;;;;;;20.79;80.91;102368.03;5022579;28;20057;-67
2022/07/11 08:48:11;;;;;;;0.88;0.80;;;;;;;20.75;76.59;102365.69;5020905;28;20037;-68
2022/07/11 08:50:36;;;;;;;0.90;0.70;;;;;;;21.01;77.55;102366.22;5019846;28;20036;-70
2022/07/11 08:53:05;;;;;;;1.63;0.70;;;;;;;20.97;79.26;102362.91;5021943;28;20042;-70
2022/07/11 08:55:31;;;;;;;0.50;0.50;;;;;;;21.58;77.26;102363.16;5022288;28;20050;-67
2022/07/11 08:57:56;;;;;;;0.85;0.47;;;;;;;22.14;74.11;102353.81;5020246;28;20048;-68
2022/07/11 09:00:23;;;;;;;0.73;0.57;;;;;;;22.23;73.58;102344.84;5022908;28;20042;-69
2022/07/11 09:02:49;;;;;;;0.70;0.60;;;;;;;22.18;73.61;102358.84;5019401;28;20041;-68
2022/07/11 09:05:17;;;;;;;0.88;0.68;;;;;;;22.74;72.74;102352.91;5019542;28;20093;-68
2022/07/11 09:07:49;;;;;;;2.92;0.70;;;;;;;22.43;71.44;102349.34;5018985;28;20038;-67
2022/07/11 09:10:16;;;;;;;0.80;0.70;;;;;;;21.72;73.39;102351.13;5021488;28;20030;-69
2022/07/11 09:12:59;;;;;;;1.42;0.90;;;;;;;21.51;77.86;102359.28;5020231;28;20061;-68
2022/07/11 09:15:42;;;;;;;0.60;0.60;;;;;;;21.29;76.41;102371.06;5021241;28;20030;-68
2022/07/11 09:18:36;;;;;;;0.47;0.47;;;;;;;20.73;79.11;102364.94;5019441;28;20046;-68
2022/07/11 09:26:37;;;;;;;0.63;0.63;;;;;;;20.22;81.68;102370.84;5021721;28;20853;-68
2022/07/11 09:29:05;;;;;;;0.70;0.70;;;;;;;20.27;83.63;102369.50;5018469;28;20033;-68
2022/07/11 09:31:33;;;;;;;0.60;0.60;;;;;;;20.17;80.91;102372.06;5018210;28;20179;-68
2022/07/11 09:34:06;;;;;;;0.63;0.60;;;;;;;20.26;82.20;102372.34;5019423;28;20064;-69
2022/07/11 09:36:46;;;;;;;0.90;0.65;;;;;;;20.59;82.74;102372.34;5020937;28;20095;-67
2022/07/11 09:39:20;;;;;;;0.70;0.70;;;;;;;20.16;82.06;102370.34;5020067;28;20486;-68
2022/07/11 09:41:47;;;;;;;1.23;1.00;;;;;;;20.14;83.10;102377.75;5020178;28;20426;-69
2022/07/11 09:44:33;;;;;;;0.85;0.75;;;;;;;20.03;82.93;102374.16;5020752;28;20149;-68
2022/07/11 09:46:59;;;;;;;2.53;0.80;;;;;;;20.31;82.35;102381.81;5021120;28;20129;-68
2022/07/11 09:49:36;;;;;;;0.90;0.80;;;;;;;20.51;81.58;102385.66;5020066;28;20045;-68
2022/07/11 09:52:17;;;;;;;1.38;0.85;;;;;;;20.59;81.71;102383.19;5020863;28;20065;-68
2022/07/11 09:54:56;;;;;;;1.80;0.80;;;;;;;20.64;82.06;102372.84;5021017;28;20034;-68
2022/07/11 09:57:40;;;;;;;0.70;0.70;;;;;;;20.94;81.66;102377.59;5020788;28;20046;-69
2022/07/11 10:00:08;;;;;;;0.60;0.60;;;;;;;20.93;83.25;102375.00;5023218;28;20040;-68
2022/07/11 10:02:34;;;;;;;0.88;0.80;;;;;;;20.46;82.49;102376.16;5021840;28;20029;-68
2022/07/11 10:05:00;;;;;;;2.88;0.65;;;;;;;21.23;78.85;102365.28;5021149;28;20068;-68
2022/07/11 10:07:26;;;;;;;0.63;0.63;;;;;;;21.75;76.58;102375.31;5021104;28;20099;-68
2022/07/11 10:09:52;;;;;;;0.60;0.60;;;;;;;22.55;74.35;102365.59;5020537;28;20042;-68
2022/07/11 10:12:20;;;;;;;2.35;1.00;;;;;;;21.92;75.56;102369.25;5020249;28;20065;-68
2022/07/11 10:14:47;;;;;;;1.35;0.63;;;;;;;21.28;77.88;102373.88;5023178;28;20099;-69
2022/07/11 10:17:43;;;;;;;1.38;0.70;;;;;;;21.74;77.84;102373.59;5024225;28;20041;-67
2022/07/11 10:20:26;;;;;;;0.55;0.55;;;;;;;22.25;74.68;102366.47;5021153;28;20057;-68
2022/07/11 10:23:20;;;;;;;0.63;0.40;;;;;;;22.22;74.57;102362.16;5021470;28;20030;-68
2022/07/11 10:26:24;;;;;;;1.77;1.05;;;;;;;21.68;76.92;102374.09;5021600;28;20038;-67
2022/07/11 10:28:59;;;;;;;1.95;0.70;;;;;;;21.83;78.24;102375.47;5023135;28;20022;-68
2022/07/11 10:31:27;;;;;;;0.82;0.77;;;;;;;21.88;74.50;102367.78;5022124;28;20033;-68
2022/07/11 10:34:18;;;;;;;0.68;0.68;;;;;;;21.85;75.40;102368.09;5022553;28;20088;-68
2022/07/11 10:36:45;;;;;;;0.50;0.50;;;;;;;21.76;76.25;102371.59;5021824;28;20042;-68
2022/07/11 10:39:27;;;;;;;0.63;0.63;;;;;;;22.09;75.76;102373.22;5021906;28;20030;-68
2022/07/11 10:41:53;;;;;;;1.42;0.70;;;;;;;21.94;76.98;102369.16;5019837;28;20537;-68
2022/07/11 10:44:19;;;;;;;0.57;0.57;;;;;;;22.07;75.38;102374.34;5021346;28;20033;-68
2022/07/11 10:46:45;;;;;;;1.30;0.70;;;;;;;22.15;77.17;102372.72;5021258;28;20030;-68
2022/07/11 10:49:17;;;;;;;0.70;0.70;;;;;;;22.51;74.88;102380.47;5023382;28;20038;-68
2022/07/11 10:52:03;;;;;;;1.27;0.95;;;;;;;22.58;74.17;102378.88;5014525;28;20030;-69
2022/07/11 10:54:44;;;;;;;1.60;0.80;;;;;;;22.61;75.37;102379.47;5014386;28;20060;-68
2022/07/11 10:57:16;;;;;;;0.75;0.60;;;;;;;21.49;78.51;102388.41;5024714;28;20026;-67
2022/07/11 10:59:58;;;;;;;3.33;0.80;;;;;;;22.43;75.25;102376.53;5011532;28;20057;-68
2022/07/11 11:02:23;;;;;;;;;;;;;;;22.44;75.79;102378.28;5006130;28;20049;-67
2022/07/11 11:05:00;;;;;;;0.65;0.65;;;;;;;22.34;76.20;102380.09;5005717;28;19981;-68
2022/07/11 11:07:44;;;;;;;0.60;0.60;;;;;;;22.34;75.83;102381.94;5004708;28;20026;-68
2022/07/11 11:10:18;;;;;;;0.95;0.90;;;;;;;22.43;75.71;102378.41;5004850;28;20043;-68
2022/07/11 11:13:14;;;;;;;1.63;0.80;;;;;;;22.27;74.32;102378.91;5003034;28;20042;-67
2022/07/11 11:15:45;;;;;;;3.05;0.95;;;;;;;22.21;73.70;102376.75;5004805;28;20046;-68
2022/07/11 11:18:26;;;;;;;0.82;0.70;;;;;;;22.27;77.75;102376.19;5005325;28;20046;-67
2022/07/11 11:21:05;;;;;;;1.08;0.93;;;;;;;22.44;75.10;102375.56;5003297;28;20114;-68
2022/07/11 11:23:34;;;;;;;0.85;0.80;;;;;;;22.12;77.58;102377.56;5004474;28;20121;-67
2022/07/11 11:26:04;;;;;;;1.10;1.00;;;;;;;22.54;74.88;102374.72;5005351;28;20042;-68
2022/07/11 11:28:30;;;;;;;3.72;1.50;;;;;;;22.05;77.32;102384.50;5003916;28;20041;-68
2022/07/11 11:30:58;;;;;;;1.45;0.88;;;;;;;22.33;76.96;102375.66;5003611;28;20046;-68
2022/07/11 11:33:29;;;;;;;1.48;1.17;;;;;;;22.25;75.80;102375.47;5004788;28;20026;-68